createdAt,value
2018-12-26T00:02:14.136Z,88.64
2018-12-26T00:04:45.602Z,87.86
2018-12-26T00:10:14.387Z,88.25
2018-12-26T00:12:43.954Z,88.01
2018-12-26T00:15:13.515Z,87.64
2018-12-26T00:17:43.076Z,87.62
2018-12-26T00:20:12.623Z,88.28
2018-12-26T00:22:42.169Z,87.56
2018-12-26T00:25:11.801Z,87.57
2018-12-26T00:28:02.648Z,87.33
2018-12-26T00:30:51.590Z,87.33
2018-12-26T00:33:21.152Z,87.71
2018-12-26T00:35:50.700Z,87.93
2018-12-26T00:41:14.502Z,88.22
2018-12-26T00:43:44.399Z,88.61
2018-12-26T00:46:13.941Z,88.36
2018-12-26T00:48:43.528Z,87.96
2018-12-26T00:51:13.064Z,87.93
2018-12-26T00:53:42.640Z,87.79
2018-12-26T00:56:12.179Z,87.11
2018-12-26T00:58:42.050Z,86.97
2018-12-26T01:01:11.820Z,87.63
2018-12-26T01:03:41.760Z,88.50
2018-12-26T01:06:11.280Z,87.32
2018-12-26T01:12:36.361Z,87.11
2018-12-26T01:15:46.144Z,86.63
2018-12-26T01:18:35.087Z,86.00
2018-12-26T01:21:04.731Z,86.09
2018-12-26T01:23:34.308Z,85.88
2018-12-26T01:26:03.865Z,84.87
2018-12-26T01:28:33.430Z,85.67
2018-12-26T01:31:02.977Z,85.27
2018-12-26T01:33:32.538Z,85.72
2018-12-26T01:36:02.093Z,85.79
2018-12-26T01:38:31.710Z,85.61
2018-12-26T01:41:01.343Z,86.30
2018-12-26T01:43:31.213Z,86.30
2018-12-26T01:46:00.795Z,86.14
2018-12-26T01:48:30.741Z,85.59
2018-12-26T01:51:00.768Z,86.18
2018-12-26T01:53:30.389Z,86.85
2018-12-26T01:55:59.956Z,87.15
2018-12-26T01:58:29.539Z,87.50
2018-12-26T02:00:59.103Z,87.33
2018-12-26T02:03:29.000Z,87.37
2018-12-26T02:05:58.556Z,87.26
2018-12-26T02:08:28.330Z,86.75
2018-12-26T02:10:57.955Z,86.79
2018-12-26T02:13:29.175Z,87.11
2018-12-26T02:15:58.716Z,87.05
2018-12-26T02:18:30.228Z,87.42
2018-12-26T02:20:59.774Z,87.89
2018-12-26T02:23:29.342Z,88.24
2018-12-26T02:25:59.000Z,87.80
2018-12-26T02:28:28.881Z,87.48
2018-12-26T02:30:58.417Z,87.82
2018-12-26T02:33:47.355Z,87.65
2018-12-26T02:36:36.293Z,88.04
2018-12-26T02:39:25.192Z,87.69
2018-12-26T02:42:14.117Z,87.58
2018-12-26T02:44:44.022Z,86.99
2018-12-26T02:47:32.686Z,87.38
2018-12-26T02:50:21.636Z,87.21
2018-12-26T02:52:51.285Z,87.47
2018-12-26T02:55:21.170Z,87.63
2018-12-26T02:57:50.708Z,87.37
2018-12-26T03:00:39.660Z,87.81
2018-12-26T03:03:28.621Z,87.98
2018-12-26T03:05:58.205Z,88.08
2018-12-26T03:08:27.764Z,87.99
2018-12-26T03:10:57.318Z,88.27
2018-12-26T03:13:27.215Z,87.93
2018-12-26T03:15:56.809Z,88.49
2018-12-26T03:18:27.979Z,88.81
2018-12-26T03:23:52.485Z,88.45
2018-12-26T03:26:22.027Z,88.99
2018-12-26T03:28:51.618Z,88.75
2018-12-26T03:31:40.544Z,88.48
2018-12-26T03:34:10.116Z,89.25
2018-12-26T03:39:28.111Z,88.29
2018-12-26T03:41:58.159Z,88.08
2018-12-26T03:44:27.709Z,88.51
2018-12-26T03:46:57.273Z,88.74
2018-12-26T03:49:46.216Z,88.34
2018-12-26T03:52:15.751Z,88.31
2018-12-26T03:54:45.327Z,87.61
2018-12-26T03:57:14.945Z,88.26
2018-12-26T03:59:44.782Z,87.93
2018-12-26T04:02:14.336Z,88.48
2018-12-26T04:04:43.896Z,88.29
2018-12-26T04:07:13.445Z,88.47
2018-12-26T04:09:43.009Z,88.47
2018-12-26T04:12:12.582Z,88.21
2018-12-26T04:14:42.124Z,88.38
2018-12-26T04:17:50.606Z,87.77
2018-12-26T04:21:00.220Z,87.22
2018-12-26T04:24:09.832Z,87.96
2018-12-26T04:26:39.373Z,87.86
2018-12-26T04:29:08.931Z,87.62
2018-12-26T04:31:38.473Z,87.33
2018-12-26T04:34:08.031Z,88.04
2018-12-26T04:36:37.584Z,88.12
2018-12-26T04:39:07.446Z,88.00
2018-12-26T04:41:36.999Z,88.16
2018-12-26T04:44:25.937Z,87.58
2018-12-26T04:46:55.492Z,88.09
2018-12-26T04:49:25.442Z,88.10
2018-12-26T04:51:54.985Z,88.31
2018-12-26T04:54:24.632Z,88.61
2018-12-26T04:56:54.458Z,88.29
2018-12-26T04:59:24.014Z,88.46
2018-12-26T05:01:53.575Z,88.30
2018-12-26T05:04:23.138Z,87.63
2018-12-26T05:06:53.601Z,87.98
2018-12-26T05:09:42.800Z,87.44
2018-12-26T05:12:12.346Z,87.83
2018-12-26T05:14:41.915Z,88.32
2018-12-26T05:17:11.793Z,87.28
2018-12-26T05:19:41.422Z,87.09
2018-12-26T05:22:10.976Z,86.34
2018-12-26T05:25:00.195Z,86.63
2018-12-26T05:27:34.382Z,86.40
2018-12-26T05:30:22.026Z,86.56
2018-12-26T05:32:53.469Z,86.24
2018-12-26T05:35:23.032Z,85.99
2018-12-26T05:38:11.933Z,86.27
2018-12-26T05:41:00.895Z,85.92
2018-12-26T05:43:32.063Z,85.92
2018-12-26T05:46:21.305Z,85.54
2018-12-26T05:49:10.490Z,85.59
2018-12-26T05:51:40.061Z,85.63
2018-12-26T05:54:09.896Z,85.72
2018-12-26T05:56:39.828Z,85.35
2018-12-26T05:59:09.618Z,84.60
2018-12-26T06:01:39.180Z,85.50
2018-12-26T06:04:10.351Z,85.61
2018-12-26T06:06:39.916Z,85.38
2018-12-26T06:09:09.533Z,85.55
2018-12-26T06:11:39.095Z,86.14
2018-12-26T06:14:08.906Z,86.15
2018-12-26T06:16:40.102Z,85.01
2018-12-26T06:19:09.655Z,85.17
2018-12-26T06:21:39.213Z,84.80
2018-12-26T06:24:10.385Z,84.21
2018-12-26T06:26:59.675Z,84.24
2018-12-26T06:29:29.630Z,84.52
2018-12-26T06:32:18.575Z,83.87
2018-12-26T06:34:48.493Z,83.43
2018-12-26T06:40:12.291Z,84.15
2018-12-26T06:43:01.192Z,84.88
2018-12-26T06:45:50.124Z,83.82
2018-12-26T06:48:19.681Z,84.45
2018-12-26T06:50:49.238Z,84.41
2018-12-26T06:53:38.160Z,84.66
2018-12-26T06:56:08.075Z,84.57
2018-12-26T06:58:37.649Z,84.93
2018-12-26T07:01:07.215Z,85.02
2018-12-26T07:06:25.197Z,85.57
2018-12-26T07:08:56.360Z,85.93
2018-12-26T07:14:20.245Z,87.25
2018-12-26T07:16:51.448Z,87.42
2018-12-26T07:19:20.995Z,87.60
2018-12-26T07:24:44.910Z,87.93
2018-12-26T07:27:14.466Z,87.41
2018-12-26T07:29:44.013Z,88.34
2018-12-26T07:32:13.993Z,88.99
2018-12-26T07:34:43.516Z,88.45
2018-12-26T07:37:13.088Z,89.15
2018-12-26T07:39:42.678Z,89.26
2018-12-26T07:42:12.282Z,88.26
2018-12-26T07:44:41.830Z,88.22
2018-12-26T07:47:11.389Z,88.45
2018-12-26T07:49:42.599Z,88.55
2018-12-26T07:52:12.449Z,87.84
2018-12-26T07:55:01.384Z,88.13
2018-12-26T07:57:30.935Z,87.88
2018-12-26T08:00:19.607Z,87.34
2018-12-26T08:02:49.166Z,87.08
2018-12-26T08:08:07.173Z,85.94
2018-12-26T08:10:56.071Z,86.41
2018-12-26T08:13:25.903Z,86.28
2018-12-26T08:15:55.736Z,85.97
2018-12-26T08:18:25.279Z,86.11
2018-12-26T08:20:54.847Z,86.49
2018-12-26T08:26:12.883Z,86.80
2018-12-26T08:28:42.414Z,86.22
2018-12-26T08:31:12.350Z,85.93
2018-12-26T08:33:41.904Z,86.58
2018-12-26T08:36:11.539Z,86.65
2018-12-26T08:38:41.162Z,87.25
2018-12-26T08:41:10.726Z,87.85
2018-12-26T08:43:40.593Z,87.84
2018-12-26T08:46:10.149Z,88.66
2018-12-26T08:48:39.705Z,88.86
2018-12-26T08:51:09.262Z,88.34
2018-12-26T08:53:38.833Z,88.45
2018-12-26T08:56:08.375Z,88.98
2018-12-26T08:58:38.254Z,88.73
2018-12-26T09:01:07.861Z,88.37
2018-12-26T09:06:32.413Z,89.73
2018-12-26T09:09:01.949Z,90.77
2018-12-26T09:11:51.228Z,87.83
2018-12-26T09:14:20.778Z,88.79
2018-12-26T09:16:50.357Z,87.46
2018-12-26T09:19:21.823Z,87.11
2018-12-26T09:21:51.808Z,88.96
2018-12-26T09:24:21.707Z,90.28
2018-12-26T09:26:51.239Z,91.09
2018-12-26T09:29:21.051Z,91.47
2018-12-26T09:31:50.639Z,91.71
2018-12-26T09:34:39.701Z,91.95
2018-12-26T09:37:09.258Z,92.77
2018-12-26T09:39:38.798Z,93.11
2018-12-26T09:42:08.363Z,94.00
2018-12-26T09:44:37.900Z,94.10
2018-12-26T09:47:07.462Z,94.06
2018-12-26T09:49:37.286Z,94.41
2018-12-26T09:52:06.841Z,94.21
2018-12-26T09:54:36.399Z,94.45
2018-12-26T09:57:05.938Z,94.30
2018-12-26T09:59:35.487Z,95.04
2018-12-26T10:02:05.051Z,95.15
2018-12-26T10:04:34.583Z,95.42
2018-12-26T10:07:04.139Z,95.26
2018-12-26T10:09:33.690Z,96.02
2018-12-26T10:12:03.246Z,96.31
2018-12-26T10:14:33.067Z,96.16
2018-12-26T10:17:02.617Z,96.30
2018-12-26T10:19:32.165Z,96.98
2018-12-26T10:22:01.766Z,97.94
2018-12-26T10:24:31.259Z,97.76
2018-12-26T10:27:00.829Z,97.57
2018-12-26T10:29:49.993Z,97.82
2018-12-26T10:32:38.932Z,98.06
2018-12-26T10:35:10.496Z,98.78
2018-12-26T10:37:41.144Z,98.29
2018-12-26T10:40:49.806Z,98.17
2018-12-26T10:43:38.513Z,97.84
2018-12-26T10:46:27.437Z,97.78
2018-12-26T10:48:57.282Z,97.40
2018-12-26T10:51:26.827Z,97.27
2018-12-26T10:53:56.377Z,96.33
2018-12-26T11:00:01.121Z,96.63
2018-12-26T11:02:30.724Z,96.62
2018-12-26T11:05:00.277Z,96.63
2018-12-26T11:07:29.838Z,96.24
2018-12-26T11:09:59.390Z,96.93
2018-12-26T11:12:28.989Z,96.76
2018-12-26T11:15:18.161Z,96.76
2018-12-26T11:18:27.778Z,96.92
2018-12-26T11:21:37.372Z,96.76
2018-12-26T11:27:01.728Z,96.46
2018-12-26T11:29:50.669Z,97.05
2018-12-26T11:32:39.867Z,97.23
2018-12-26T11:35:11.059Z,97.73
2018-12-26T11:38:20.649Z,97.90
2018-12-26T11:40:50.492Z,97.92
2018-12-26T11:43:20.140Z,97.14
2018-12-26T11:48:38.406Z,96.86
2018-12-26T11:51:08.243Z,96.83
2018-12-26T11:53:37.798Z,97.01
2018-12-26T11:56:07.341Z,96.84
2018-12-26T12:01:31.201Z,97.25
2018-12-26T12:04:00.768Z,97.64
2018-12-26T12:06:30.561Z,97.90
2018-12-26T12:09:00.462Z,98.22
2018-12-26T12:11:49.354Z,98.54
2018-12-26T12:14:38.295Z,98.73
2018-12-26T12:17:26.967Z,98.87
2018-12-26T12:20:15.898Z,98.85
2018-12-26T12:23:04.849Z,98.57
2018-12-26T12:25:34.395Z,98.45
2018-12-26T12:30:57.899Z,98.50
2018-12-26T12:33:27.726Z,99.32
2018-12-26T12:38:45.759Z,98.99
2018-12-26T12:41:15.326Z,98.22
2018-12-26T12:44:04.260Z,98.20
2018-12-26T12:46:33.811Z,97.86
2018-12-26T12:49:03.371Z,97.89
2018-12-26T12:51:32.939Z,98.19
2018-12-26T12:54:04.499Z,98.27
2018-12-26T12:56:34.070Z,98.54
2018-12-26T12:59:23.023Z,97.96
2018-12-26T13:01:52.584Z,98.69
2018-12-26T13:04:22.167Z,99.10
2018-12-26T13:06:51.786Z,99.90
2018-12-26T13:09:21.707Z,99.82
2018-12-26T13:11:51.255Z,99.73
2018-12-26T13:14:20.815Z,100.00
2018-12-26T13:16:50.377Z,100.00
2018-12-26T13:19:19.945Z,100.00
2018-12-26T13:21:49.501Z,100.00
2018-12-26T13:24:19.174Z,100.00
2018-12-26T13:26:48.690Z,100.00
2018-12-26T13:29:18.258Z,100.00
2018-12-26T13:31:47.812Z,100.00
2018-12-26T13:34:36.762Z,100.00
2018-12-26T13:37:06.322Z,100.00
2018-12-26T13:39:35.889Z,100.00
2018-12-26T13:42:05.441Z,100.00
2018-12-26T13:44:35.329Z,100.00
2018-12-26T13:47:05.194Z,100.00
2018-12-26T13:49:34.749Z,100.00
2018-12-26T13:52:11.304Z,100.00
2018-12-26T13:54:40.880Z,100.00
2018-12-26T13:57:10.420Z,100.00
2018-12-26T13:59:39.972Z,100.00
2018-12-26T14:02:09.522Z,100.00
2018-12-26T14:04:39.150Z,100.00
2018-12-26T14:07:09.054Z,100.00
2018-12-26T14:09:38.616Z,100.00
2018-12-26T14:12:08.469Z,100.00
2018-12-26T14:14:38.026Z,100.00
2018-12-26T14:17:07.573Z,100.00
2018-12-26T14:19:37.130Z,100.00
2018-12-26T14:22:06.679Z,100.00
2018-12-26T14:24:36.508Z,100.00
2018-12-26T14:27:06.053Z,100.00
2018-12-26T14:29:55.002Z,100.00
2018-12-26T14:32:24.557Z,100.00
2018-12-26T14:37:48.966Z,100.00
2018-12-26T14:40:18.515Z,100.00
2018-12-26T14:42:48.449Z,100.00
2018-12-26T14:45:37.145Z,100.00
2018-12-26T14:48:06.960Z,100.00
2018-12-26T14:50:36.517Z,100.00
2018-12-26T14:53:06.071Z,100.00
2018-12-26T14:55:35.628Z,100.00
2018-12-26T14:58:05.175Z,100.00
2018-12-26T15:00:34.759Z,100.00
2018-12-26T15:03:04.332Z,100.00
2018-12-26T15:05:33.957Z,100.00
2018-12-26T15:08:03.533Z,100.00
2018-12-26T15:10:33.182Z,100.00
2018-12-26T15:13:02.721Z,100.00
2018-12-26T15:15:32.282Z,100.00
2018-12-26T15:18:03.511Z,100.00
2018-12-26T15:20:33.391Z,100.00
2018-12-26T15:23:03.064Z,100.00
2018-12-26T15:25:52.325Z,100.00
2018-12-26T15:28:21.892Z,100.00
2018-12-26T15:30:51.467Z,100.00
2018-12-26T15:33:21.371Z,100.00
2018-12-26T15:35:51.281Z,100.00
2018-12-26T15:38:20.851Z,100.00
2018-12-26T15:41:09.807Z,100.00
2018-12-26T15:43:39.415Z,100.00
2018-12-26T15:46:09.300Z,100.00
2018-12-26T15:48:38.845Z,100.00
2018-12-26T15:51:28.009Z,100.00
2018-12-26T15:53:57.818Z,100.00
2018-12-26T15:56:47.028Z,100.00
2018-12-26T15:59:35.972Z,100.00
2018-12-26T16:02:05.843Z,100.00
2018-12-26T16:04:35.408Z,100.00
2018-12-26T16:07:04.968Z,100.00
2018-12-26T16:09:34.553Z,100.00
2018-12-26T16:12:04.374Z,100.00
2018-12-26T16:14:34.290Z,100.00
2018-12-26T16:17:03.838Z,100.00
2018-12-26T16:19:52.538Z,100.00
2018-12-26T16:22:22.104Z,100.00
2018-12-26T16:24:51.685Z,100.00
2018-12-26T16:27:21.239Z,100.00
2018-12-26T16:29:51.107Z,100.00
2018-12-26T16:32:20.655Z,100.00
2018-12-26T16:34:50.216Z,100.00
2018-12-26T16:37:20.137Z,100.00
2018-12-26T16:39:49.691Z,100.00
2018-12-26T16:42:19.536Z,100.00
2018-12-26T16:44:49.347Z,100.00
2018-12-26T16:47:18.891Z,100.00
2018-12-26T16:50:47.914Z,100.00
2018-12-26T16:53:36.827Z,100.00
2018-12-26T16:56:25.736Z,100.00
2018-12-26T16:58:55.357Z,100.00
2018-12-26T17:01:25.300Z,100.00
2018-12-26T17:03:54.848Z,100.00
2018-12-26T17:06:24.441Z,100.00
2018-12-26T17:08:53.987Z,100.00
2018-12-26T17:11:23.546Z,100.00
2018-12-26T17:13:53.432Z,100.00
2018-12-26T17:16:22.990Z,100.00
2018-12-26T17:18:52.531Z,100.00
2018-12-26T17:21:22.088Z,100.00
2018-12-26T17:23:51.632Z,100.00
2018-12-26T17:26:21.224Z,100.00
2018-12-26T17:28:50.742Z,100.00
2018-12-26T17:31:20.309Z,100.00
2018-12-26T17:33:49.861Z,100.00
2018-12-26T17:36:19.415Z,100.00
2018-12-26T17:38:48.968Z,100.00
2018-12-26T17:41:37.930Z,100.00
2018-12-26T17:44:07.802Z,100.00
2018-12-26T17:46:37.365Z,100.00
2018-12-26T17:49:07.233Z,100.00
2018-12-26T17:51:36.811Z,100.00
2018-12-26T17:54:46.399Z,100.00
2018-12-26T18:01:12.886Z,100.00
2018-12-26T18:04:02.280Z,100.00
2018-12-26T18:06:32.128Z,100.00
2018-12-26T18:09:01.688Z,100.00
2018-12-26T18:11:51.448Z,100.00
2018-12-26T18:14:41.572Z,100.00
2018-12-26T18:17:11.131Z,100.00
2018-12-26T18:19:40.678Z,100.00
2018-12-26T18:22:10.597Z,100.00
2018-12-26T18:24:40.148Z,100.00
2018-12-26T18:27:09.713Z,100.00
2018-12-26T18:29:39.266Z,100.00
2018-12-26T18:32:10.458Z,100.00
2018-12-26T18:34:40.029Z,100.00
2018-12-26T18:37:09.661Z,100.00
2018-12-26T18:42:47.375Z,100.00
2018-12-26T18:45:17.261Z,100.00
2018-12-26T18:47:46.895Z,100.00
2018-12-26T18:50:16.459Z,100.00
2018-12-26T18:52:46.109Z,100.00
2018-12-26T18:55:15.768Z,100.00
2018-12-26T18:58:04.462Z,100.00
2018-12-26T19:00:34.055Z,100.00
2018-12-26T19:03:03.885Z,100.00
2018-12-26T19:05:33.773Z,100.00
2018-12-26T19:08:03.406Z,100.00
2018-12-26T19:10:32.957Z,100.00
2018-12-26T19:13:21.904Z,100.00
2018-12-26T19:15:51.786Z,100.00
2018-12-26T19:18:21.326Z,100.00
2018-12-26T19:20:50.960Z,100.00
2018-12-26T19:23:40.257Z,100.00
2018-12-26T19:26:11.440Z,100.00
2018-12-26T19:28:41.066Z,100.00
2018-12-26T19:31:10.678Z,100.00
2018-12-26T19:33:40.228Z,100.00
2018-12-26T19:36:10.144Z,100.00
2018-12-26T19:38:39.698Z,100.00
2018-12-26T19:41:09.581Z,100.00
2018-12-26T19:43:39.183Z,100.00
2018-12-26T19:46:08.739Z,100.00
2018-12-26T19:48:38.290Z,100.00
2018-12-26T19:51:07.847Z,100.00
2018-12-26T19:53:37.422Z,100.00
2018-12-26T19:56:07.323Z,100.00
2018-12-26T19:58:36.914Z,100.00
2018-12-26T20:04:00.403Z,100.00
2018-12-26T20:06:49.355Z,100.00
2018-12-26T20:09:18.970Z,100.00
2018-12-26T20:11:48.549Z,100.00
2018-12-26T20:14:18.233Z,100.00
2018-12-26T20:16:47.780Z,100.00
2018-12-26T20:19:17.328Z,100.00
2018-12-26T20:21:46.899Z,100.00
2018-12-26T20:24:16.450Z,100.00
2018-12-26T20:26:46.356Z,100.00
2018-12-26T20:29:15.912Z,100.00
2018-12-26T20:31:45.485Z,100.00
2018-12-26T20:34:15.034Z,100.00
2018-12-26T20:36:44.599Z,100.00
2018-12-26T20:39:14.487Z,100.00
2018-12-26T20:41:44.156Z,100.00
2018-12-26T20:44:13.681Z,100.00
2018-12-26T20:46:43.230Z,100.00
2018-12-26T20:49:12.872Z,100.00
2018-12-26T20:52:01.789Z,100.00
2018-12-26T20:54:31.353Z,100.00
2018-12-26T20:57:01.299Z,100.00
2018-12-26T20:59:30.928Z,100.00
2018-12-26T21:02:05.817Z,100.00
2018-12-26T21:04:52.769Z,100.00
2018-12-26T21:07:22.670Z,100.00
2018-12-26T21:09:52.221Z,100.00
2018-12-26T21:12:22.094Z,100.00
2018-12-26T21:14:51.926Z,100.00
2018-12-26T21:17:21.497Z,100.00
2018-12-26T21:19:51.344Z,100.00
2018-12-26T21:22:20.900Z,100.00
2018-12-26T21:24:50.456Z,100.00
2018-12-26T21:27:20.024Z,100.00
2018-12-26T21:30:49.015Z,100.00
2018-12-26T21:33:18.973Z,100.00
2018-12-26T21:35:49.002Z,100.00
2018-12-26T21:38:18.915Z,100.00
2018-12-26T21:40:48.474Z,100.00
2018-12-26T21:43:58.094Z,100.00
2018-12-26T21:46:27.651Z,100.00
2018-12-26T21:48:57.229Z,100.00
2018-12-26T21:51:27.103Z,100.00
2018-12-26T21:53:56.665Z,100.00
2018-12-26T21:56:26.222Z,100.00
2018-12-26T21:58:56.033Z,100.00
2018-12-26T22:01:25.600Z,100.00
2018-12-26T22:03:55.162Z,100.00
2018-12-26T22:06:24.992Z,100.00
2018-12-26T22:08:54.556Z,100.00
2018-12-26T22:11:24.294Z,100.00
2018-12-26T22:13:54.048Z,100.00
2018-12-26T22:16:23.913Z,100.00
2018-12-26T22:21:48.148Z,100.00
2018-12-26T22:24:37.125Z,100.00
2018-12-26T22:27:06.675Z,100.00
2018-12-26T22:29:36.240Z,100.00
2018-12-26T22:32:05.796Z,100.00
2018-12-26T22:34:35.660Z,100.00
2018-12-26T22:37:05.207Z,100.00
2018-12-26T22:39:34.778Z,100.00
2018-12-26T22:42:04.351Z,100.00
2018-12-26T22:44:53.264Z,100.00
2018-12-26T22:47:22.865Z,100.00
2018-12-26T22:49:52.431Z,100.00
2018-12-26T22:52:21.992Z,100.00
2018-12-26T22:54:51.573Z,100.00
2018-12-26T22:57:40.520Z,100.00
2018-12-26T23:00:50.149Z,100.00
2018-12-26T23:03:19.742Z,100.00
2018-12-26T23:08:37.741Z,100.00
2018-12-26T23:11:07.587Z,100.00
2018-12-26T23:13:37.149Z,100.00
2018-12-26T23:16:06.699Z,100.00
2018-12-26T23:18:36.280Z,100.00
2018-12-26T23:21:05.857Z,100.00
2018-12-26T23:23:54.787Z,100.00
2018-12-26T23:26:24.688Z,100.00
2018-12-26T23:28:54.248Z,100.00
2018-12-26T23:31:23.803Z,100.00
2018-12-26T23:33:53.406Z,100.00
2018-12-26T23:36:22.965Z,100.00
2018-12-26T23:38:52.529Z,100.00
2018-12-26T23:41:22.453Z,100.00
2018-12-26T23:43:52.286Z,100.00
2018-12-26T23:46:21.840Z,100.00
2018-12-26T23:48:51.798Z,100.00
2018-12-26T23:51:21.355Z,100.00
2018-12-26T23:53:50.913Z,100.00
2018-12-26T23:56:20.498Z,100.00
2018-12-26T23:58:50.076Z,100.00
